createdAt,value
2018-05-18T00:00:42.171Z,0.00
2018-05-18T00:01:42.230Z,0.00
2018-05-18T00:02:42.165Z,0.00
2018-05-18T00:03:42.191Z,0.00
2018-05-18T00:04:42.463Z,0.00
2018-05-18T00:05:42.257Z,0.00
2018-05-18T00:06:42.217Z,0.00
2018-05-18T00:07:42.322Z,0.00
2018-05-18T00:08:42.363Z,0.00
2018-05-18T00:09:42.269Z,0.00
2018-05-18T00:10:42.240Z,0.00
2018-05-18T00:11:42.266Z,0.00
2018-05-18T00:12:42.269Z,0.00
2018-05-18T00:13:42.310Z,0.00
2018-05-18T00:14:42.313Z,0.00
2018-05-18T00:15:42.389Z,0.00
2018-05-18T00:16:42.315Z,0.00
2018-05-18T00:17:42.385Z,0.00
2018-05-18T00:18:42.347Z,0.00
2018-05-18T00:19:42.351Z,0.00
2018-05-18T00:20:42.399Z,0.00
2018-05-18T00:21:42.367Z,0.00
2018-05-18T00:22:42.427Z,0.00
2018-05-18T00:23:42.395Z,0.00
2018-05-18T00:24:42.401Z,0.00
2018-05-18T00:25:42.391Z,0.00
2018-05-18T00:26:43.296Z,0.00
2018-05-18T00:27:42.440Z,0.00
2018-05-18T00:28:42.522Z,0.00
2018-05-18T00:29:42.492Z,0.00
2018-05-18T00:30:42.489Z,0.00
2018-05-18T00:31:42.509Z,0.00
2018-05-18T00:32:42.501Z,0.00
2018-05-18T00:33:42.505Z,0.00
2018-05-18T00:34:42.619Z,0.00
2018-05-18T00:35:42.523Z,0.00
2018-05-18T00:36:42.528Z,0.00
2018-05-18T00:37:42.522Z,0.00
2018-05-18T00:38:42.642Z,0.00
2018-05-18T00:39:42.535Z,0.00
2018-05-18T00:40:42.554Z,0.00
2018-05-18T00:41:42.975Z,0.00
2018-05-18T00:42:42.617Z,0.00
2018-05-18T00:43:42.714Z,0.00
2018-05-18T00:44:42.581Z,0.00
2018-05-18T00:45:42.690Z,0.00
2018-05-18T00:46:42.622Z,0.00
2018-05-18T00:47:42.643Z,0.00
2018-05-18T00:48:42.643Z,0.00
2018-05-18T00:49:42.659Z,0.00
2018-05-18T00:50:42.706Z,0.00
2018-05-18T00:51:42.671Z,0.00
2018-05-18T00:52:42.681Z,0.00
2018-05-18T00:53:42.691Z,0.00
2018-05-18T00:54:42.743Z,0.00
2018-05-18T00:55:42.741Z,0.00
2018-05-18T00:56:42.706Z,0.00
2018-05-18T00:57:42.757Z,0.00
2018-05-18T00:58:42.724Z,0.00
2018-05-18T00:59:42.741Z,0.00
2018-05-18T01:00:42.815Z,0.00
2018-05-18T01:01:42.770Z,0.00
2018-05-18T01:02:42.771Z,0.00
2018-05-18T01:03:42.810Z,0.00
2018-05-18T01:04:42.787Z,0.00
2018-05-18T01:05:42.826Z,0.00
2018-05-18T01:06:42.820Z,0.00
2018-05-18T01:07:42.828Z,0.00
2018-05-18T01:08:42.856Z,0.00
2018-05-18T01:09:42.885Z,0.00
2018-05-18T01:10:42.869Z,0.00
2018-05-18T01:11:42.918Z,0.00
2018-05-18T01:12:42.862Z,0.00
2018-05-18T01:13:42.929Z,0.00
2018-05-18T01:14:42.894Z,0.00
2018-05-18T01:15:42.900Z,0.00
2018-05-18T01:16:42.906Z,0.00
2018-05-18T01:17:42.959Z,0.00
2018-05-18T01:18:43.130Z,0.00
2018-05-18T01:19:42.963Z,0.00
2018-05-18T01:20:42.948Z,0.00
2018-05-18T01:21:42.948Z,0.00
2018-05-18T01:22:42.989Z,0.00
2018-05-18T01:23:42.995Z,0.00
2018-05-18T01:24:43.000Z,0.00
2018-05-18T01:25:43.483Z,0.00
2018-05-18T01:26:43.020Z,0.00
2018-05-18T01:27:43.029Z,0.00
2018-05-18T01:28:43.035Z,0.00
2018-05-18T01:29:43.104Z,0.00
2018-05-18T01:30:43.106Z,0.00
2018-05-18T01:31:43.054Z,0.00
2018-05-18T01:32:43.521Z,0.00
2018-05-18T01:33:43.086Z,0.00
2018-05-18T01:34:43.071Z,0.00
2018-05-18T01:35:43.177Z,0.00
2018-05-18T01:36:43.120Z,0.00
2018-05-18T01:37:43.166Z,0.00
2018-05-18T01:38:43.128Z,0.00
2018-05-18T01:39:43.157Z,0.00
2018-05-18T01:40:43.191Z,0.00
2018-05-18T01:41:43.170Z,0.00
2018-05-18T01:42:43.247Z,0.00
2018-05-18T01:43:43.210Z,0.00
2018-05-18T01:44:43.214Z,0.00
2018-05-18T01:45:43.211Z,0.00
2018-05-18T01:46:43.212Z,0.00
2018-05-18T01:47:43.226Z,0.00
2018-05-18T01:48:43.285Z,0.00
2018-05-18T01:49:43.505Z,0.00
2018-05-18T01:50:43.253Z,0.00
2018-05-18T01:51:43.259Z,0.00
2018-05-18T01:52:43.313Z,0.00
2018-05-18T01:53:43.275Z,0.00
2018-05-18T01:54:43.339Z,0.00
2018-05-18T01:55:43.293Z,0.00
2018-05-18T01:56:43.620Z,0.00
2018-05-18T01:57:43.335Z,0.00
2018-05-18T01:58:43.336Z,0.00
2018-05-18T01:59:43.330Z,0.00
2018-05-18T02:00:43.335Z,0.00
2018-05-18T02:01:43.361Z,0.00
2018-05-18T02:02:43.402Z,0.00
2018-05-18T02:03:43.366Z,0.00
2018-05-18T02:04:43.396Z,0.00
2018-05-18T02:05:43.436Z,0.00
2018-05-18T02:06:43.472Z,0.00
2018-05-18T02:07:43.460Z,0.00
2018-05-18T02:08:43.419Z,0.00
2018-05-18T02:09:43.439Z,0.00
2018-05-18T02:10:43.436Z,0.00
2018-05-18T02:11:43.449Z,0.00
2018-05-18T02:12:43.525Z,0.00
2018-05-18T02:13:43.736Z,0.00
2018-05-18T02:14:43.469Z,0.00
2018-05-18T02:15:43.494Z,0.00
2018-05-18T02:16:43.501Z,0.00
2018-05-18T02:17:43.510Z,0.00
2018-05-18T02:18:43.571Z,0.00
2018-05-18T02:19:43.537Z,0.00
2018-05-18T02:20:44.055Z,0.00
2018-05-18T02:21:43.558Z,0.00
2018-05-18T02:22:43.557Z,0.00
2018-05-18T02:23:43.655Z,0.00
2018-05-18T02:24:43.706Z,0.00
2018-05-18T02:25:43.601Z,0.00
2018-05-18T02:26:43.609Z,0.00
2018-05-18T02:27:43.881Z,0.00
2018-05-18T02:28:43.621Z,0.00
2018-05-18T02:29:43.654Z,4.00
2018-05-18T02:30:43.662Z,4.00
2018-05-18T02:31:43.679Z,0.00
2018-05-18T02:32:43.646Z,0.00
2018-05-18T02:33:43.669Z,4.00
2018-05-18T02:34:43.688Z,4.00
2018-05-18T02:35:43.683Z,0.00
2018-05-18T02:36:43.711Z,4.00
2018-05-18T02:37:44.097Z,4.00
2018-05-18T02:38:43.707Z,4.00
2018-05-18T02:39:43.744Z,8.00
2018-05-18T02:40:43.766Z,4.00
2018-05-18T02:41:43.776Z,4.00
2018-05-18T02:42:43.989Z,8.00
2018-05-18T02:43:43.747Z,8.00
2018-05-18T02:44:43.900Z,8.00
2018-05-18T02:45:43.800Z,12.00
2018-05-18T02:46:43.799Z,12.00
2018-05-18T02:47:43.851Z,12.00
2018-05-18T02:48:43.844Z,16.00
2018-05-18T02:49:43.805Z,16.00
2018-05-18T02:50:43.813Z,16.00
2018-05-18T02:51:43.833Z,20.00
2018-05-18T02:52:43.953Z,24.00
2018-05-18T02:53:43.845Z,24.00
2018-05-18T02:54:44.053Z,28.00
2018-05-18T02:55:43.871Z,28.00
2018-05-18T02:56:43.953Z,32.00
2018-05-18T02:57:43.882Z,36.00
2018-05-18T02:58:43.892Z,36.00
2018-05-18T02:59:43.897Z,40.00
2018-05-18T03:00:43.954Z,44.00
2018-05-18T03:01:44.421Z,48.00
2018-05-18T03:02:43.993Z,52.00
2018-05-18T03:03:43.958Z,56.00
2018-05-18T03:04:43.954Z,64.00
2018-05-18T03:05:43.973Z,64.00
2018-05-18T03:06:44.019Z,68.00
2018-05-18T03:07:43.988Z,72.00
2018-05-18T03:08:44.034Z,80.00
2018-05-18T03:09:44.008Z,84.00
2018-05-18T03:10:44.023Z,92.00
2018-05-18T03:11:44.390Z,96.00
2018-05-18T03:12:44.033Z,100.00
2018-05-18T03:13:44.106Z,104.00
2018-05-18T03:14:44.050Z,112.00
2018-05-18T03:15:44.079Z,120.00
2018-05-18T03:16:44.120Z,124.00
2018-05-18T03:17:44.104Z,132.00
2018-05-18T03:18:44.088Z,136.00
2018-05-18T03:19:44.139Z,144.00
2018-05-18T03:20:44.125Z,152.00
2018-05-18T03:21:44.120Z,164.00
2018-05-18T03:22:44.125Z,172.00
2018-05-18T03:23:44.165Z,180.00
2018-05-18T03:24:44.172Z,188.00
2018-05-18T03:25:44.178Z,200.00
2018-05-18T03:26:44.183Z,208.00
2018-05-18T03:27:44.196Z,216.00
2018-05-18T03:28:44.549Z,228.00
2018-05-18T03:29:44.223Z,240.00
2018-05-18T03:30:44.210Z,248.00
2018-05-18T03:31:44.220Z,260.00
2018-05-18T03:32:44.335Z,272.00
2018-05-18T03:33:44.230Z,284.00
2018-05-18T03:34:44.271Z,292.00
2018-05-18T03:35:44.289Z,304.00
2018-05-18T03:36:44.321Z,316.00
2018-05-18T03:37:44.261Z,336.00
2018-05-18T03:38:44.320Z,348.00
2018-05-18T03:39:44.316Z,364.00
2018-05-18T03:40:44.366Z,384.00
2018-05-18T03:41:44.303Z,396.00
2018-05-18T03:42:44.310Z,412.00
2018-05-18T03:43:44.332Z,428.00
2018-05-18T03:44:44.343Z,440.00
2018-05-18T03:45:44.379Z,452.00
2018-05-18T03:46:44.494Z,464.00
2018-05-18T03:47:44.375Z,472.00
2018-05-18T03:48:44.378Z,476.00
2018-05-18T03:49:44.393Z,488.00
2018-05-18T03:50:44.464Z,500.00
2018-05-18T03:51:44.478Z,512.00
2018-05-18T03:52:44.532Z,520.00
2018-05-18T03:53:44.439Z,532.00
2018-05-18T03:54:44.477Z,536.00
2018-05-18T03:55:44.449Z,548.00
2018-05-18T03:56:44.467Z,552.00
2018-05-18T03:57:44.517Z,564.00
2018-05-18T03:58:44.470Z,576.00
2018-05-18T03:59:44.480Z,592.00
2018-05-18T04:00:44.488Z,600.00
2018-05-18T04:01:44.531Z,612.00
2018-05-18T04:02:44.557Z,632.00
2018-05-18T04:03:44.890Z,660.00
2018-05-18T04:04:44.526Z,676.00
2018-05-18T04:05:44.577Z,704.00
2018-05-18T04:06:44.545Z,736.00
2018-05-18T04:07:44.699Z,764.00
2018-05-18T04:08:44.592Z,812.00
2018-05-18T04:09:44.584Z,880.00
2018-05-18T04:10:44.597Z,960.00
2018-05-18T04:11:44.588Z,1032.00
2018-05-18T04:12:44.681Z,1108.00
2018-05-18T04:13:44.980Z,1160.00
2018-05-18T04:14:44.623Z,1220.00
2018-05-18T04:15:44.639Z,1272.00
2018-05-18T04:16:44.651Z,1360.00
2018-05-18T04:17:44.655Z,1464.00
2018-05-18T04:18:44.729Z,1592.00
2018-05-18T04:19:44.702Z,1668.00
2018-05-18T04:20:44.679Z,1832.00
2018-05-18T04:21:44.704Z,1840.00
2018-05-18T04:22:44.704Z,1484.00
2018-05-18T04:23:44.882Z,1724.00
2018-05-18T04:24:44.733Z,1744.00
2018-05-18T04:25:44.745Z,1540.00
2018-05-18T04:26:44.766Z,1668.00
2018-05-18T04:27:44.780Z,1560.00
2018-05-18T04:28:44.814Z,1644.00
2018-05-18T04:29:44.785Z,1624.00
2018-05-18T04:30:44.811Z,1788.00
2018-05-18T04:31:44.799Z,1764.00
2018-05-18T04:32:44.856Z,2000.00
2018-05-18T04:33:44.974Z,1688.00
2018-05-18T04:34:44.881Z,1780.00
2018-05-18T04:35:44.892Z,1688.00
2018-05-18T04:36:44.861Z,1472.00
2018-05-18T04:37:44.855Z,1400.00
2018-05-18T04:38:44.855Z,1216.00
2018-05-18T04:39:44.874Z,1236.00
2018-05-18T04:40:45.984Z,1196.00
2018-05-18T04:41:44.932Z,1208.00
2018-05-18T04:42:44.941Z,1184.00
2018-05-18T04:43:44.904Z,1280.00
2018-05-18T04:44:44.939Z,1392.00
2018-05-18T04:45:44.999Z,1480.00
2018-05-18T04:46:44.983Z,1848.00
2018-05-18T04:47:44.977Z,1684.00
2018-05-18T04:48:45.021Z,1712.00
2018-05-18T04:49:44.989Z,1616.00
2018-05-18T04:50:45.293Z,1776.00
2018-05-18T04:51:45.045Z,1664.00
2018-05-18T04:52:45.039Z,1392.00
2018-05-18T04:53:45.050Z,1276.00
2018-05-18T04:54:45.060Z,1284.00
2018-05-18T04:55:45.072Z,1332.00
2018-05-18T04:56:45.044Z,1320.00
2018-05-18T04:57:45.041Z,1456.00
2018-05-18T04:58:45.158Z,1472.00
2018-05-18T04:59:45.160Z,1660.00
2018-05-18T05:00:45.246Z,1612.00
2018-05-18T05:01:45.128Z,1712.00
2018-05-18T05:02:45.119Z,1632.00
2018-05-18T05:03:45.215Z,1504.00
2018-05-18T05:04:45.135Z,1448.00
2018-05-18T05:05:45.144Z,1460.00
2018-05-18T05:06:45.148Z,1584.00
2018-05-18T05:07:45.163Z,1588.00
2018-05-18T05:08:45.171Z,1636.00
2018-05-18T05:09:45.219Z,1748.00
2018-05-18T05:10:45.281Z,1684.00
2018-05-18T05:11:45.191Z,1444.00
2018-05-18T05:12:45.256Z,1348.00
2018-05-18T05:13:45.210Z,1280.00
2018-05-18T05:14:45.261Z,1200.00
2018-05-18T05:15:45.255Z,1140.00
2018-05-18T05:16:45.247Z,1124.00
2018-05-18T05:17:45.801Z,1032.00
2018-05-18T05:18:45.361Z,1020.00
2018-05-18T05:19:45.351Z,1000.00
2018-05-18T05:20:45.303Z,896.00
2018-05-18T05:21:45.401Z,964.00
2018-05-18T05:22:45.321Z,980.00
2018-05-18T05:23:45.393Z,1064.00
2018-05-18T05:24:45.382Z,1132.00
2018-05-18T05:25:45.405Z,1180.00
2018-05-18T05:26:45.423Z,1016.00
2018-05-18T05:27:46.023Z,932.00
2018-05-18T05:28:45.376Z,884.00
2018-05-18T05:29:45.403Z,908.00
2018-05-18T05:30:45.436Z,928.00
2018-05-18T05:31:45.540Z,948.00
2018-05-18T05:32:45.422Z,1004.00
2018-05-18T05:33:45.435Z,1032.00
2018-05-18T05:34:45.453Z,1224.00
2018-05-18T05:35:45.756Z,1124.00
2018-05-18T05:36:45.523Z,1352.00
2018-05-18T05:37:45.477Z,1380.00
2018-05-18T05:38:45.475Z,1400.00
2018-05-18T05:39:45.490Z,1416.00
2018-05-18T05:40:45.536Z,1400.00
2018-05-18T05:41:45.494Z,1412.00
2018-05-18T05:42:45.564Z,1428.00
2018-05-18T05:43:45.518Z,1468.00
2018-05-18T05:44:45.533Z,1408.00
2018-05-18T05:45:46.060Z,1348.00
2018-05-18T05:46:45.663Z,1416.00
2018-05-18T05:47:45.570Z,1404.00
2018-05-18T05:48:45.590Z,1364.00
2018-05-18T05:49:45.607Z,1376.00
2018-05-18T05:50:45.703Z,1468.00
2018-05-18T05:51:45.658Z,1412.00
2018-05-18T05:52:45.623Z,1412.00
2018-05-18T05:53:45.632Z,1352.00
2018-05-18T05:54:45.661Z,1444.00
2018-05-18T05:55:45.944Z,1508.00
2018-05-18T05:56:45.689Z,1512.00
2018-05-18T05:57:45.663Z,1540.00
2018-05-18T05:58:45.663Z,1608.00
2018-05-18T05:59:45.672Z,1576.00
2018-05-18T06:00:45.681Z,1556.00
2018-05-18T06:01:45.755Z,1608.00
2018-05-18T06:02:45.819Z,1768.00
2018-05-18T06:03:45.712Z,1804.00
2018-05-18T06:04:45.716Z,1836.00
2018-05-18T06:05:46.277Z,1920.00
2018-05-18T06:06:45.743Z,1916.00
2018-05-18T06:07:45.784Z,1872.00
2018-05-18T06:08:45.773Z,1816.00
2018-05-18T06:09:45.775Z,1848.00
2018-05-18T06:10:45.825Z,1828.00
2018-05-18T06:11:45.880Z,1796.00
2018-05-18T06:12:45.891Z,1712.00
2018-05-18T06:13:45.851Z,1692.00
2018-05-18T06:14:45.827Z,1668.00
2018-05-18T06:15:45.849Z,1708.00
2018-05-18T06:16:45.897Z,1804.00
2018-05-18T06:17:45.897Z,1904.00
2018-05-18T06:18:46.115Z,1968.00
2018-05-18T06:19:45.872Z,2080.00
2018-05-18T06:20:45.928Z,2136.00
2018-05-18T06:21:45.905Z,1920.00
2018-05-18T06:22:45.893Z,1824.00
2018-05-18T06:23:45.930Z,1844.00
2018-05-18T06:24:45.952Z,1788.00
2018-05-18T06:25:45.930Z,1700.00
2018-05-18T06:26:46.109Z,1644.00
2018-05-18T06:27:45.962Z,1644.00
2018-05-18T06:28:46.334Z,1780.00
2018-05-18T06:29:46.002Z,1748.00
2018-05-18T06:30:46.012Z,1716.00
2018-05-18T06:31:46.000Z,1660.00
2018-05-18T06:32:46.100Z,1600.00
2018-05-18T06:33:46.032Z,1612.00
2018-05-18T06:34:46.139Z,1684.00
2018-05-18T06:35:48.876Z,1752.00
2018-05-18T06:36:46.041Z,1816.00
2018-05-18T06:37:46.061Z,1828.00
2018-05-18T06:38:46.659Z,1816.00
2018-05-18T06:39:46.116Z,1836.00
2018-05-18T06:40:46.110Z,1844.00
2018-05-18T06:41:46.218Z,1644.00
2018-05-18T06:42:46.154Z,1664.00
2018-05-18T06:43:46.163Z,1712.00
2018-05-18T06:44:46.178Z,1728.00
2018-05-18T06:45:46.169Z,1716.00
2018-05-18T06:46:46.459Z,1832.00
2018-05-18T06:47:46.175Z,1836.00
2018-05-18T06:48:46.191Z,1748.00
2018-05-18T06:49:46.187Z,1956.00
2018-05-18T06:50:46.217Z,1960.00
2018-05-18T06:51:46.928Z,2032.00
2018-05-18T06:52:46.253Z,2112.00
2018-05-18T06:53:46.237Z,2192.00
2018-05-18T06:54:46.435Z,2236.00
2018-05-18T06:55:46.259Z,2280.00
2018-05-18T06:56:46.249Z,2376.00
2018-05-18T06:57:46.301Z,2432.00
2018-05-18T06:58:46.488Z,2392.00
2018-05-18T06:59:46.312Z,2288.00
2018-05-18T07:00:46.323Z,2232.00
2018-05-18T07:01:46.308Z,2248.00
2018-05-18T07:02:46.443Z,2292.00
2018-05-18T07:03:46.423Z,2320.00
2018-05-18T07:04:46.703Z,2360.00
2018-05-18T07:05:46.368Z,2392.00
2018-05-18T07:06:46.357Z,2472.00
2018-05-18T07:07:46.440Z,2544.00
2018-05-18T07:08:46.400Z,2312.00
2018-05-18T07:09:46.533Z,2312.00
2018-05-18T07:10:46.480Z,2336.00
2018-05-18T07:11:46.420Z,2356.00
2018-05-18T07:12:46.441Z,2360.00
2018-05-18T07:13:46.457Z,2348.00
2018-05-18T07:14:46.519Z,2448.00
2018-05-18T07:15:46.470Z,2420.00
2018-05-18T07:16:46.538Z,2428.00
2018-05-18T07:17:46.627Z,2440.00
2018-05-18T07:18:46.494Z,2424.00
2018-05-18T07:19:46.536Z,2472.00
2018-05-18T07:20:46.507Z,2536.00
2018-05-18T07:21:46.520Z,2576.00
2018-05-18T07:22:46.564Z,2660.00
2018-05-18T07:23:46.531Z,2812.00
2018-05-18T07:24:46.543Z,2952.00
2018-05-18T07:25:46.564Z,2936.00
2018-05-18T07:26:46.657Z,3004.00
2018-05-18T07:27:47.331Z,3072.00
2018-05-18T07:28:46.585Z,3100.00
2018-05-18T07:29:46.624Z,3092.00
2018-05-18T07:30:46.793Z,3428.00
2018-05-18T07:31:46.632Z,3404.00
2018-05-18T07:32:46.713Z,3420.00
2018-05-18T07:33:46.686Z,3424.00
2018-05-18T07:34:46.663Z,3492.00
2018-05-18T07:35:46.663Z,3532.00
2018-05-18T07:36:46.711Z,3592.00
2018-05-18T07:37:46.689Z,3644.00
2018-05-18T07:38:46.803Z,3628.00
2018-05-18T07:39:46.702Z,3560.00
2018-05-18T07:40:46.967Z,3432.00
2018-05-18T07:41:46.763Z,3392.00
2018-05-18T07:42:46.768Z,2964.00
2018-05-18T07:43:46.856Z,2904.00
2018-05-18T07:44:46.762Z,2892.00
2018-05-18T07:45:46.774Z,2836.00
2018-05-18T07:46:46.833Z,2664.00
2018-05-18T07:47:46.827Z,2684.00
2018-05-18T07:48:46.817Z,2676.00
2018-05-18T07:49:46.825Z,2636.00
2018-05-18T07:50:46.836Z,2648.00
2018-05-18T07:51:46.876Z,2656.00
2018-05-18T07:52:46.872Z,2636.00
2018-05-18T07:53:46.982Z,2624.00
2018-05-18T07:54:46.904Z,2624.00
2018-05-18T07:55:46.905Z,2612.00
2018-05-18T07:56:46.968Z,2572.00
2018-05-18T07:57:46.923Z,2576.00
2018-05-18T07:58:46.940Z,2588.00
2018-05-18T07:59:46.936Z,2584.00
2018-05-18T08:00:46.946Z,2544.00
2018-05-18T08:01:47.004Z,2444.00
2018-05-18T08:02:47.013Z,2508.00
2018-05-18T08:03:46.995Z,2536.00
2018-05-18T08:04:47.013Z,2692.00
2018-05-18T08:05:47.039Z,2776.00
2018-05-18T08:06:47.305Z,2724.00
2018-05-18T08:07:47.111Z,2784.00
2018-05-18T08:08:47.043Z,2764.00
2018-05-18T08:09:47.068Z,2828.00
2018-05-18T08:10:47.073Z,2876.00
2018-05-18T08:11:47.077Z,2932.00
2018-05-18T08:12:47.133Z,2960.00
2018-05-18T08:13:47.117Z,2952.00
2018-05-18T08:14:47.128Z,2972.00
2018-05-18T08:15:47.149Z,3304.00
2018-05-18T08:16:47.179Z,3308.00
2018-05-18T08:17:47.182Z,3224.00
2018-05-18T08:18:47.164Z,3252.00
2018-05-18T08:19:47.532Z,3100.00
2018-05-18T08:20:47.201Z,3128.00
2018-05-18T08:21:47.194Z,3084.00
2018-05-18T08:22:47.217Z,3356.00
2018-05-18T08:23:47.208Z,3356.00
2018-05-18T08:24:47.264Z,3284.00
2018-05-18T08:25:47.259Z,3324.00
2018-05-18T08:26:47.288Z,3368.00
2018-05-18T08:27:47.317Z,3444.00
2018-05-18T08:28:47.290Z,3320.00
2018-05-18T08:29:47.355Z,3368.00
2018-05-18T08:30:47.355Z,3364.00
2018-05-18T08:31:47.355Z,3352.00
2018-05-18T08:32:47.664Z,3404.00
2018-05-18T08:33:47.332Z,3452.00
2018-05-18T08:34:47.344Z,3440.00
2018-05-18T08:35:47.451Z,3456.00
2018-05-18T08:36:47.390Z,3400.00
2018-05-18T08:37:47.399Z,2980.00
2018-05-18T08:38:47.414Z,3000.00
2018-05-18T08:39:47.421Z,3036.00
2018-05-18T08:40:47.464Z,3060.00
2018-05-18T08:41:47.480Z,3248.00
2018-05-18T08:42:47.465Z,3180.00
2018-05-18T08:43:47.455Z,3044.00
2018-05-18T08:44:47.463Z,2944.00
2018-05-18T08:45:47.739Z,3028.00
2018-05-18T08:46:47.523Z,3012.00
2018-05-18T08:47:47.537Z,3020.00
2018-05-18T08:48:47.582Z,3108.00
2018-05-18T08:49:47.548Z,3140.00
2018-05-18T08:50:47.543Z,3168.00
2018-05-18T08:51:47.559Z,3340.00
2018-05-18T08:52:47.582Z,3396.00
2018-05-18T08:53:47.619Z,3468.00
2018-05-18T08:54:47.601Z,3400.00
2018-05-18T08:55:47.599Z,3372.00
2018-05-18T08:56:47.632Z,3368.00
2018-05-18T08:57:47.647Z,3368.00
2018-05-18T08:58:47.640Z,3352.00
2018-05-18T08:59:47.717Z,3324.00
2018-05-18T09:00:47.673Z,3276.00
2018-05-18T09:01:47.679Z,3308.00
2018-05-18T09:02:47.722Z,3340.00
2018-05-18T09:03:47.689Z,3316.00
2018-05-18T09:04:47.754Z,3300.00
2018-05-18T09:05:47.703Z,3324.00
2018-05-18T09:06:47.735Z,3260.00
2018-05-18T09:07:47.741Z,3284.00
2018-05-18T09:08:47.775Z,3212.00
2018-05-18T09:09:47.820Z,3120.00
2018-05-18T09:10:47.780Z,3140.00
2018-05-18T09:11:47.797Z,3176.00
2018-05-18T09:12:47.976Z,3188.00
2018-05-18T09:13:47.820Z,3208.00
2018-05-18T09:14:47.860Z,3196.00
2018-05-18T09:15:47.945Z,3248.00
2018-05-18T09:16:47.857Z,3272.00
2018-05-18T09:17:47.962Z,3220.00
2018-05-18T09:18:47.873Z,3016.00
2018-05-18T09:19:47.924Z,3148.00
2018-05-18T09:20:47.930Z,3216.00
2018-05-18T09:21:47.986Z,3276.00
2018-05-18T09:22:48.012Z,3328.00
2018-05-18T09:23:47.931Z,3332.00
2018-05-18T09:24:48.002Z,3292.00
2018-05-18T09:25:47.953Z,3308.00
2018-05-18T09:26:48.012Z,3192.00
2018-05-18T09:27:48.002Z,3252.00
2018-05-18T09:28:48.246Z,3304.00
2018-05-18T09:29:48.044Z,3396.00
2018-05-18T09:30:48.013Z,3308.00
2018-05-18T09:31:48.035Z,3280.00
2018-05-18T09:32:48.060Z,3308.00
2018-05-18T09:33:48.050Z,3296.00
2018-05-18T09:34:48.499Z,3384.00
2018-05-18T09:35:48.124Z,3384.00
2018-05-18T09:36:48.155Z,3348.00
2018-05-18T09:37:48.113Z,3224.00
2018-05-18T09:38:48.121Z,3356.00
2018-05-18T09:39:48.337Z,3412.00
2018-05-18T09:40:48.185Z,3372.00
2018-05-18T09:41:49.845Z,3432.00
2018-05-18T09:42:48.160Z,3492.00
2018-05-18T09:43:48.237Z,3488.00
2018-05-18T09:44:48.356Z,3480.00
2018-05-18T09:45:48.212Z,3492.00
2018-05-18T09:46:48.273Z,3456.00
2018-05-18T09:47:48.960Z,3460.00
2018-05-18T09:48:48.256Z,3428.00
2018-05-18T09:49:48.248Z,3480.00
2018-05-18T09:50:48.270Z,3504.00
2018-05-18T09:51:48.355Z,3448.00
2018-05-18T09:52:48.367Z,3904.00
2018-05-18T09:53:48.326Z,3908.00
2018-05-18T09:54:48.361Z,3500.00
2018-05-18T09:55:48.333Z,3512.00
2018-05-18T09:56:48.385Z,3440.00
2018-05-18T09:57:48.846Z,3392.00
2018-05-18T09:58:48.407Z,3376.00
2018-05-18T09:59:48.401Z,3372.00
2018-05-18T10:00:48.636Z,3292.00
2018-05-18T10:01:48.462Z,3252.00
2018-05-18T10:02:48.414Z,3248.00
2018-05-18T10:03:48.470Z,3292.00
2018-05-18T10:04:48.470Z,3300.00
2018-05-18T10:05:48.455Z,3312.00
2018-05-18T10:06:48.540Z,3252.00
2018-05-18T10:07:48.458Z,3272.00
2018-05-18T10:08:48.480Z,3240.00
2018-05-18T10:09:48.520Z,3260.00
2018-05-18T10:10:48.536Z,3268.00
2018-05-18T10:11:49.530Z,3332.00
2018-05-18T10:12:48.611Z,3428.00
2018-05-18T10:13:48.825Z,3288.00
2018-05-18T10:14:48.581Z,3188.00
2018-05-18T10:15:48.609Z,3204.00
2018-05-18T10:16:48.771Z,3628.00
2018-05-18T10:17:48.588Z,3536.00
2018-05-18T10:18:48.649Z,3428.00
2018-05-18T10:19:48.624Z,3432.00
2018-05-18T10:20:48.668Z,3392.00
2018-05-18T10:21:48.655Z,3356.00
2018-05-18T10:22:48.667Z,3324.00
2018-05-18T10:23:48.674Z,3280.00
2018-05-18T10:24:48.681Z,3296.00
2018-05-18T10:25:48.749Z,2972.00
2018-05-18T10:26:48.768Z,2980.00
2018-05-18T10:27:48.767Z,2988.00
2018-05-18T10:28:48.748Z,3476.00
2018-05-18T10:29:49.377Z,3544.00
2018-05-18T10:30:48.766Z,3584.00
2018-05-18T10:31:49.350Z,3640.00
2018-05-18T10:32:48.915Z,3632.00
2018-05-18T10:33:49.019Z,3592.00
2018-05-18T10:34:48.827Z,3612.00
2018-05-18T10:35:48.816Z,3600.00
2018-05-18T10:36:48.910Z,3600.00
2018-05-18T10:37:48.958Z,3560.00
2018-05-18T10:38:48.848Z,3652.00
2018-05-18T10:39:48.860Z,3636.00
2018-05-18T10:40:48.887Z,3288.00
2018-05-18T10:41:48.913Z,3236.00
2018-05-18T10:42:48.981Z,3264.00
2018-05-18T10:43:49.033Z,3336.00
2018-05-18T10:44:49.002Z,3660.00
2018-05-18T10:45:48.986Z,3708.00
2018-05-18T10:46:48.941Z,3684.00
2018-05-18T10:47:48.994Z,3704.00
2018-05-18T10:48:50.027Z,3668.00
2018-05-18T10:49:49.027Z,3716.00
2018-05-18T10:50:49.026Z,3788.00
2018-05-18T10:51:49.091Z,3780.00
2018-05-18T10:52:49.026Z,3788.00
2018-05-18T10:53:49.044Z,3816.00
2018-05-18T10:54:49.110Z,3788.00
2018-05-18T10:55:49.059Z,3300.00
2018-05-18T10:56:49.062Z,3212.00
2018-05-18T10:57:49.129Z,3204.00
2018-05-18T10:58:49.116Z,3232.00
2018-05-18T10:59:49.267Z,3196.00
2018-05-18T11:00:49.129Z,3168.00
2018-05-18T11:01:49.167Z,3132.00
2018-05-18T11:02:49.143Z,3104.00
2018-05-18T11:03:49.200Z,3092.00
2018-05-18T11:04:50.353Z,3060.00
2018-05-18T11:05:49.252Z,3076.00
2018-05-18T11:06:49.204Z,3020.00
2018-05-18T11:07:49.306Z,2988.00
2018-05-18T11:08:49.210Z,3000.00
2018-05-18T11:09:49.300Z,3024.00
2018-05-18T11:10:49.321Z,2960.00
2018-05-18T11:11:49.256Z,2948.00
2018-05-18T11:12:49.358Z,3016.00
2018-05-18T11:13:49.411Z,3060.00
2018-05-18T11:14:49.294Z,3092.00
2018-05-18T11:15:49.298Z,3560.00
2018-05-18T11:16:49.342Z,3564.00
2018-05-18T11:17:49.368Z,3520.00
2018-05-18T11:18:49.423Z,3520.00
2018-05-18T11:19:49.369Z,3056.00
2018-05-18T11:20:49.427Z,3088.00
2018-05-18T11:21:49.381Z,3508.00
2018-05-18T11:22:49.472Z,3520.00
2018-05-18T11:23:49.568Z,3488.00
2018-05-18T11:24:49.427Z,3480.00
2018-05-18T11:25:49.474Z,3500.00
2018-05-18T11:26:50.362Z,3472.00
2018-05-18T11:27:49.486Z,3488.00
2018-05-18T11:28:49.460Z,3440.00
2018-05-18T11:29:49.604Z,3412.00
2018-05-18T11:30:50.021Z,3416.00
2018-05-18T11:31:49.535Z,3364.00
2018-05-18T11:32:49.511Z,3348.00
2018-05-18T11:33:49.590Z,3312.00
2018-05-18T11:34:49.601Z,2936.00
2018-05-18T11:35:49.550Z,2968.00
2018-05-18T11:36:49.617Z,3016.00
2018-05-18T11:37:49.570Z,3000.00
2018-05-18T11:38:49.609Z,3104.00
2018-05-18T11:39:49.607Z,3128.00
2018-05-18T11:40:49.623Z,3144.00
2018-05-18T11:41:49.654Z,3136.00
2018-05-18T11:42:50.472Z,3592.00
2018-05-18T11:43:49.644Z,3580.00
2018-05-18T11:44:49.778Z,3560.00
2018-05-18T11:45:49.884Z,3552.00
2018-05-18T11:46:49.744Z,3532.00
2018-05-18T11:47:49.729Z,3540.00
2018-05-18T11:48:49.717Z,3556.00
2018-05-18T11:49:49.734Z,3576.00
2018-05-18T11:50:49.736Z,3568.00
2018-05-18T11:51:49.793Z,3528.00
2018-05-18T11:52:49.797Z,3588.00
2018-05-18T11:53:49.802Z,3572.00
2018-05-18T11:54:49.791Z,3592.00
2018-05-18T11:55:49.870Z,3568.00
2018-05-18T11:56:49.815Z,3520.00
2018-05-18T11:57:49.840Z,3496.00
2018-05-18T11:58:49.860Z,3476.00
2018-05-18T11:59:49.868Z,3048.00
2018-05-18T12:00:49.895Z,3012.00
2018-05-18T12:01:49.880Z,2972.00
2018-05-18T12:02:49.984Z,2952.00
2018-05-18T12:03:49.910Z,2928.00
2018-05-18T12:04:50.370Z,2936.00
2018-05-18T12:05:49.920Z,2904.00
2018-05-18T12:06:49.933Z,2892.00
2018-05-18T12:07:50.547Z,2852.00
2018-05-18T12:08:49.993Z,2848.00
2018-05-18T12:09:49.972Z,2812.00
2018-05-18T12:10:49.979Z,2808.00
2018-05-18T12:11:50.007Z,3104.00
2018-05-18T12:12:50.036Z,3048.00
2018-05-18T12:13:50.075Z,3052.00
2018-05-18T12:14:50.053Z,3056.00
2018-05-18T12:15:50.083Z,2608.00
2018-05-18T12:16:50.067Z,2624.00
2018-05-18T12:17:50.095Z,2624.00
2018-05-18T12:18:50.124Z,2672.00
2018-05-18T12:19:50.420Z,2664.00
2018-05-18T12:20:50.138Z,2664.00
2018-05-18T12:21:50.121Z,2716.00
2018-05-18T12:22:50.126Z,2748.00
2018-05-18T12:23:50.242Z,2756.00
2018-05-18T12:24:50.177Z,2748.00